Time;durP1;ratioP1;P1;durP2;ratioP2;P2;SDS_P1;SDS_P2;PMS_P1;PMS_P2;Temp;Humidity;BMP_temperature;BMP_pressure;BME280_temperature;BME280_humidity;BME280_pressure;Samples;Min_cycle;Max_cycle;Signal;HPM_P1;HPM_P2
2022/08/18 03:02:19;;;;;;;0.77;0.70;;;21.20;79.60;;;;;;5366540;22;20502;-77
2022/08/18 03:04:46;;;;;;;0.80;0.80;;;21.20;79.40;;;;;;5033502;28;20474;-77
2022/08/18 03:07:13;;;;;;;0.70;0.70;;;21.20;79.40;;;;;;5033544;28;20835;-77
2022/08/18 03:09:41;;;;;;;1.20;0.70;;;21.20;79.20;;;;;;5033289;28;20922;-77
2022/08/18 03:12:08;;;;;;;0.70;0.70;;;21.20;79.50;;;;;;5033431;28;20491;-78
2022/08/18 03:14:35;;;;;;;1.00;0.87;;;21.20;79.40;;;;;;5033460;28;20443;-77
2022/08/18 03:17:07;;;;;;;0.90;0.90;;;21.00;80.20;;;;;;5034594;28;20938;-77
2022/08/18 03:19:35;;;;;;;0.77;0.77;;;21.00;80.40;;;;;;5033543;28;20436;-77
2022/08/18 03:22:03;;;;;;;0.80;0.77;;;20.90;80.60;;;;;;5033399;28;20471;-77
2022/08/18 03:24:30;;;;;;;0.80;0.80;;;20.70;81.10;;;;;;5033366;28;20455;-77
2022/08/18 03:26:57;;;;;;;0.70;0.70;;;20.80;81.30;;;;;;5033303;28;20517;-77
2022/08/18 03:29:25;;;;;;;0.87;0.87;;;20.80;81.30;;;;;;5033332;28;20456;-77
2022/08/18 03:31:51;;;;;;;0.80;0.80;;;20.70;81.60;;;;;;5033055;28;20974;-77
2022/08/18 03:34:20;;;;;;;0.70;0.70;;;20.80;81.40;;;;;;5033094;28;20824;-77
2022/08/18 03:36:49;;;;;;;0.90;0.90;;;20.90;81.20;;;;;;5032973;28;20447;-77
2022/08/18 03:39:17;;;;;;;0.90;0.90;;;20.80;81.40;;;;;;5033181;28;20454;-77
2022/08/18 03:41:45;;;;;;;0.80;0.80;;;20.80;81.40;;;;;;5032771;28;20842;-77
2022/08/18 03:44:14;;;;;;;0.73;0.73;;;20.90;81.40;;;;;;5033207;28;20452;-78
2022/08/18 03:46:41;;;;;;;0.87;0.87;;;21.00;81.20;;;;;;5033056;28;20479;-77
2022/08/18 03:49:09;;;;;;;0.90;0.90;;;21.00;81.00;;;;;;5032833;28;20966;-77
2022/08/18 03:51:36;;;;;;;0.70;0.67;;;21.10;80.70;;;;;;5033092;28;20498;-77
2022/08/18 03:54:06;;;;;;;0.80;0.80;;;21.10;80.40;;;;;;5033041;28;20821;-77
2022/08/18 03:56:37;;;;;;;0.80;0.80;;;21.20;80.20;;;;;;5033053;28;20453;-77
2022/08/18 03:59:07;;;;;;;0.87;0.87;;;21.20;80.20;;;;;;5032775;28;20833;-77
2022/08/18 04:01:37;;;;;;;0.70;0.70;;;21.20;80.10;;;;;;5032586;28;20984;-77
2022/08/18 04:04:06;;;;;;;0.70;0.70;;;21.00;80.70;;;;;;5033106;28;20444;-77
2022/08/18 04:06:35;;;;;;;0.70;0.70;;;21.00;81.00;;;;;;5032975;28;20518;-77
2022/08/18 04:09:06;;;;;;;0.70;0.70;;;21.00;80.90;;;;;;5035658;28;20443;-77
2022/08/18 04:11:33;;;;;;;1.13;0.70;;;21.00;80.80;;;;;;5037213;28;20470;-75
2022/08/18 04:14:00;;;;;;;0.80;0.80;;;21.00;81.00;;;;;;5037799;28;20497;-75
2022/08/18 04:16:31;;;;;;;0.80;0.80;;;21.00;81.00;;;;;;5037511;28;20440;-75
2022/08/18 04:19:00;;;;;;;0.80;0.80;;;21.00;81.10;;;;;;5037545;28;20440;-75
2022/08/18 04:21:27;;;;;;;0.80;0.80;;;21.00;81.00;;;;;;5037579;28;20493;-75
2022/08/18 04:23:54;;;;;;;0.90;0.90;;;21.00;80.90;;;;;;5037338;28;20443;-75
2022/08/18 04:26:22;;;;;;;0.90;0.90;;;21.00;81.10;;;;;;5037051;28;20579;-75
2022/08/18 04:28:48;;;;;;;0.90;0.80;;;21.10;81.00;;;;;;5037533;28;20443;-75
2022/08/18 04:31:16;;;;;;;0.90;0.90;;;21.00;80.90;;;;;;5036552;28;20885;-75
2022/08/18 04:33:43;;;;;;;1.00;0.90;;;21.00;81.10;;;;;;5036622;28;20455;-75
2022/08/18 04:36:12;;;;;;;0.80;0.80;;;21.00;81.30;;;;;;5037028;28;20475;-75
2022/08/18 04:38:41;;;;;;;0.70;0.70;;;21.10;81.00;;;;;;5036724;28;20498;-75
2022/08/18 04:41:09;;;;;;;0.90;0.90;;;21.20;80.90;;;;;;5036861;28;20590;-75
2022/08/18 04:43:38;;;;;;;0.80;0.80;;;21.20;80.70;;;;;;5037036;28;20474;-75
2022/08/18 04:46:05;;;;;;;0.90;0.90;;;21.30;80.60;;;;;;5036640;28;20491;-75
2022/08/18 04:48:33;;;;;;;0.70;0.70;;;21.30;80.30;;;;;;5036521;28;20447;-75
2022/08/18 04:51:06;;;;;;;1.17;1.00;;;21.40;80.00;;;;;;5036043;28;20994;-75
2022/08/18 04:53:44;;;;;;;0.73;0.73;;;21.40;80.00;;;;;;5036471;28;20850;-75
2022/08/18 04:56:14;;;;;;;0.80;0.80;;;21.50;80.00;;;;;;5036535;28;20787;-75
2022/08/18 04:58:42;;;;;;;1.00;0.90;;;21.60;79.70;;;;;;5037137;28;20506;-75
2022/08/18 05:01:09;;;;;;;0.77;0.77;;;21.70;79.50;;;;;;5036140;28;20475;-75
2022/08/18 05:03:37;;;;;;;0.90;0.90;;;21.70;79.20;;;;;;5036403;28;20487;-75
2022/08/18 05:06:06;;;;;;;0.80;0.80;;;21.80;79.10;;;;;;5036524;28;20483;-75
2022/08/18 05:08:32;;;;;;;0.80;0.80;;;21.80;78.80;;;;;;5036104;28;20938;-75
2022/08/18 05:10:59;;;;;;;0.80;0.80;;;21.90;78.60;;;;;;5036152;28;20479;-75
2022/08/18 05:13:26;;;;;;;0.80;0.80;;;22.00;78.50;;;;;;5036576;28;20498;-74
2022/08/18 05:15:56;;;;;;;0.80;0.80;;;22.00;78.40;;;;;;5036245;28;20443;-74
2022/08/18 05:18:24;;;;;;;0.70;0.70;;;22.00;78.40;;;;;;5035580;28;20447;-75
2022/08/18 05:20:51;;;;;;;0.80;0.80;;;22.10;78.30;;;;;;5035344;28;20541;-75
2022/08/18 05:23:18;;;;;;;0.90;0.90;;;22.00;78.20;;;;;;5036083;28;20555;-74
2022/08/18 05:25:45;;;;;;;0.70;0.70;;;22.10;78.50;;;;;;5036506;28;20947;-75
2022/08/18 05:28:13;;;;;;;0.80;0.80;;;22.20;78.20;;;;;;5036433;28;20455;-75
2022/08/18 05:30:40;;;;;;;0.90;0.90;;;22.40;77.50;;;;;;5036475;28;20542;-75
2022/08/18 05:33:09;;;;;;;0.70;0.70;;;22.40;77.30;;;;;;5036910;28;20486;-75
2022/08/18 05:35:42;;;;;;;0.80;0.80;;;22.60;77.00;;;;;;5036928;28;20510;-74
2022/08/18 05:38:33;;;;;;;0.80;0.80;;;22.70;76.70;;;;;;5036414;28;20436;-75
2022/08/18 05:41:08;;;;;;;0.80;0.80;;;22.90;76.10;;;;;;5036912;28;20463;-74
2022/08/18 05:43:37;;;;;;;0.80;0.80;;;23.10;75.80;;;;;;5036613;28;20428;-75
2022/08/18 05:46:06;;;;;;;1.40;0.87;;;23.30;74.80;;;;;;5036022;28;20479;-75
2022/08/18 05:48:35;;;;;;;0.90;0.90;;;23.40;74.20;;;;;;5035732;28;20796;-75
2022/08/18 05:51:10;;;;;;;0.73;0.70;;;23.40;73.90;;;;;;5035645;28;20517;-74
2022/08/18 05:59:14;;;;;;;0.80;0.80;;;23.40;73.90;;;;;;5035638;28;20760;-75
2022/08/18 06:01:44;;;;;;;0.70;0.70;;;23.30;73.50;;;;;;5035775;28;20483;-74
2022/08/18 06:04:22;;;;;;;0.80;0.80;;;23.30;73.70;;;;;;5036137;28;20443;-75
2022/08/18 06:06:51;;;;;;;0.70;0.70;;;23.30;73.50;;;;;;5034278;28;20467;-74
2022/08/18 06:09:21;;;;;;;0.77;0.77;;;23.40;73.50;;;;;;5034025;28;20451;-74
2022/08/18 06:11:48;;;;;;;0.80;0.80;;;23.40;73.90;;;;;;5034853;28;20471;-73
2022/08/18 06:14:15;;;;;;;1.33;0.87;;;23.40;74.10;;;;;;5034212;28;20447;-73
2022/08/18 06:16:56;;;;;;;0.80;0.80;;;23.50;74.10;;;;;;5034238;28;20473;-74
2022/08/18 06:19:37;;;;;;;0.80;0.80;;;23.60;74.10;;;;;;5034329;28;20432;-73
2022/08/18 06:22:15;;;;;;;0.73;0.73;;;23.40;73.30;;;;;;5034050;28;20500;-73
2022/08/18 06:24:46;;;;;;;0.80;0.80;;;23.00;73.30;;;;;;5033745;28;20969;-73
2022/08/18 06:27:22;;;;;;;1.00;0.87;;;22.90;74.40;;;;;;5033625;28;20836;-73
2022/08/18 06:30:03;;;;;;;0.90;0.90;;;22.80;76.40;;;;;;5033698;28;20839;-73
2022/08/18 06:32:46;;;;;;;0.70;0.70;;;22.50;77.40;;;;;;5033022;28;20824;-73
2022/08/18 06:35:22;;;;;;;0.83;0.83;;;22.40;77.50;;;;;;5033893;28;20482;-73
2022/08/18 06:40:38;;;;;;;0.80;0.80;;;22.30;78.60;;;;;;5033810;28;20819;-73
2022/08/18 06:43:08;;;;;;;0.80;0.80;;;22.50;78.40;;;;;;5033794;28;20478;-72
2022/08/18 06:45:39;;;;;;;0.80;0.80;;;22.70;77.50;;;;;;5033864;28;20481;-74
2022/08/18 06:48:12;;;;;;;0.80;0.70;;;22.90;76.80;;;;;;5033853;28;20876;-74
2022/08/18 06:50:46;;;;;;;0.80;0.80;;;23.20;76.10;;;;;;5033443;28;20432;-73
2022/08/18 06:53:13;;;;;;;0.80;0.80;;;23.30;74.60;;;;;;5033608;28;20431;-74
2022/08/18 06:55:42;;;;;;;0.80;0.80;;;23.40;74.20;;;;;;5033595;28;20479;-74
2022/08/18 06:58:28;;;;;;;0.70;0.70;;;23.40;73.80;;;;;;5033521;28;20443;-74
2022/08/18 07:00:59;;;;;;;0.77;0.77;;;23.50;73.30;;;;;;5033342;28;20479;-74
2022/08/18 07:03:41;;;;;;;0.80;0.73;;;23.60;73.20;;;;;;5033537;28;20481;-74
2022/08/18 07:06:23;;;;;;;0.80;0.77;;;23.70;72.90;;;;;;5033354;28;20432;-74
2022/08/18 07:08:52;;;;;;;0.70;0.70;;;23.40;73.20;;;;;;5033418;28;20489;-74
2022/08/18 07:11:21;;;;;;;0.70;0.70;;;23.40;73.10;;;;;;5032965;28;20978;-74
2022/08/18 07:13:50;;;;;;;0.70;0.70;;;23.50;72.50;;;;;;5033371;28;20481;-74
2022/08/18 07:16:21;;;;;;;0.70;0.70;;;23.30;72.70;;;;;;5033304;28;20450;-74
2022/08/18 07:18:50;;;;;;;0.80;0.70;;;23.10;73.10;;;;;;5033308;28;20892;-74
2022/08/18 07:21:27;;;;;;;0.80;0.77;;;22.80;74.50;;;;;;5033220;28;20818;-74
2022/08/18 07:24:00;;;;;;;0.80;0.80;;;22.90;74.30;;;;;;5033274;28;20428;-74
2022/08/18 07:26:27;;;;;;;0.80;0.80;;;22.90;74.90;;;;;;5033215;28;20468;-74
2022/08/18 07:28:54;;;;;;;0.90;0.90;;;22.80;75.60;;;;;;5033211;28;20447;-74
2022/08/18 07:31:35;;;;;;;0.80;0.80;;;22.50;76.90;;;;;;5032865;28;20521;-74
2022/08/18 07:34:07;;;;;;;0.80;0.80;;;22.30;78.10;;;;;;5033201;28;20431;-74
2022/08/18 07:36:42;;;;;;;0.80;0.80;;;22.40;78.40;;;;;;5033041;28;20943;-74
2022/08/18 07:39:14;;;;;;;0.90;0.70;;;22.30;78.50;;;;;;5033212;28;20863;-74
2022/08/18 07:41:49;;;;;;;0.80;0.80;;;22.20;78.40;;;;;;5033031;28;20525;-74
2022/08/18 07:44:23;;;;;;;0.80;0.80;;;22.20;78.10;;;;;;5036807;28;20435;-73
2022/08/18 07:46:59;;;;;;;1.00;1.00;;;22.40;78.00;;;;;;5036969;28;20467;-74
2022/08/18 07:49:32;;;;;;;0.80;0.80;;;22.50;77.70;;;;;;5036608;28;20428;-73
2022/08/18 07:52:05;;;;;;;0.70;0.70;;;22.60;77.50;;;;;;5036832;28;20550;-73
2022/08/18 07:54:42;;;;;;;1.30;0.70;;;22.70;77.60;;;;;;5036881;28;20427;-74
2022/08/18 07:57:13;;;;;;;0.90;0.90;;;22.70;77.20;;;;;;5036799;28;20431;-73
2022/08/18 07:59:47;;;;;;;0.80;0.80;;;22.50;77.60;;;;;;5036430;28;20546;-74
2022/08/18 08:02:25;;;;;;;0.80;0.80;;;22.40;78.50;;;;;;5036375;28;20506;-73
2022/08/18 08:04:59;;;;;;;0.93;0.83;;;22.20;79.10;;;;;;5036426;28;20478;-73
2022/08/18 08:07:31;;;;;;;0.70;0.70;;;22.20;79.30;;;;;;5036323;28;20466;-74
2022/08/18 08:10:18;;;;;;;0.77;0.77;;;22.40;79.00;;;;;;5036627;28;20608;-74
2022/08/18 08:12:52;;;;;;;0.70;0.70;;;22.50;78.50;;;;;;5036529;28;20550;-74
2022/08/18 08:15:27;;;;;;;0.80;0.80;;;22.70;77.80;;;;;;5036481;28;20448;-74
2022/08/18 08:17:59;;;;;;;0.80;0.80;;;22.80;77.60;;;;;;5036484;28;20481;-74
2022/08/18 08:20:31;;;;;;;0.80;0.80;;;22.90;76.90;;;;;;5036307;28;20439;-74
2022/08/18 08:23:08;;;;;;;0.77;0.77;;;23.00;76.30;;;;;;5036389;28;20486;-74
2022/08/18 08:25:46;;;;;;;0.80;0.80;;;23.20;76.10;;;;;;5036352;28;20438;-74
2022/08/18 08:28:23;;;;;;;0.87;0.87;;;23.20;74.80;;;;;;5035850;28;20467;-74
2022/08/18 08:31:03;;;;;;;0.80;0.80;;;23.20;74.60;;;;;;5036844;28;20467;-73
2022/08/18 08:33:37;;;;;;;0.70;0.70;;;23.30;74.00;;;;;;5035838;28;20447;-74
2022/08/18 08:36:10;;;;;;;0.80;0.80;;;23.50;74.30;;;;;;5036119;28;20427;-74
2022/08/18 08:38:44;;;;;;;0.80;0.80;;;23.60;73.80;;;;;;5035746;28;20792;-74
2022/08/18 08:41:14;;;;;;;0.73;0.73;;;23.80;72.90;;;;;;5035662;28;20978;-74
2022/08/18 08:43:45;;;;;;;0.70;0.70;;;23.80;72.70;;;;;;5035944;28;20499;-74
2022/08/18 08:46:16;;;;;;;0.90;0.90;;;24.10;72.80;;;;;;5035919;28;20494;-74
2022/08/18 08:48:49;;;;;;;0.77;0.77;;;24.40;71.10;;;;;;5035800;28;20468;-74
2022/08/18 08:51:29;;;;;;;0.80;0.80;;;24.60;70.40;;;;;;5035489;28;20884;-74
2022/08/18 08:54:01;;;;;;;0.80;0.80;;;24.60;70.10;;;;;;5035020;28;20899;-74
2022/08/18 08:56:33;;;;;;;1.00;0.90;;;24.70;70.20;;;;;;5034997;28;20930;-74
2022/08/18 08:59:05;;;;;;;0.80;0.80;;;24.70;70.30;;;;;;5035349;28;20903;-74
2022/08/18 09:01:37;;;;;;;0.90;0.80;;;24.80;70.20;;;;;;5035340;28;20541;-74
2022/08/18 09:04:22;;;;;;;0.90;0.73;;;24.90;69.60;;;;;;5035727;28;20429;-74
2022/08/18 09:06:55;;;;;;;0.93;0.90;;;25.10;69.50;;;;;;5035477;28;20529;-75
2022/08/18 09:09:39;;;;;;;0.90;0.90;;;25.40;69.20;;;;;;5035497;28;20440;-75
2022/08/18 09:12:19;;;;;;;0.80;0.80;;;25.80;68.70;;;;;;5035073;28;20828;-74
2022/08/18 09:15:15;;;;;;;0.80;0.80;;;26.00;67.50;;;;;;5035138;28;20481;-75
2022/08/18 09:17:59;;;;;;;0.70;0.70;;;26.10;67.50;;;;;;5036950;28;20435;-75
2022/08/18 09:20:40;;;;;;;1.00;0.90;;;26.20;68.40;;;;;;5035219;28;20432;-74
2022/08/18 09:23:10;;;;;;;0.80;0.80;;;26.40;66.90;;;;;;5035244;28;20435;-75
2022/08/18 09:25:49;;;;;;;0.80;0.80;;;26.60;66.40;;;;;;5034928;28;20428;-75
2022/08/18 09:28:18;;;;;;;0.80;0.80;;;26.80;66.10;;;;;;5035097;28;20475;-75
2022/08/18 09:30:51;;;;;;;0.80;0.80;;;26.70;66.30;;;;;;5034999;28;20876;-74
2022/08/18 09:33:28;;;;;;;0.77;0.77;;;26.70;66.80;;;;;;5035077;28;20439;-74
2022/08/18 09:36:06;;;;;;;0.80;0.80;;;26.70;66.80;;;;;;5035017;28;20530;-75
2022/08/18 09:41:33;;;;;;;0.80;0.80;;;27.10;65.50;;;;;;5034836;28;20954;-74
2022/08/18 09:44:13;;;;;;;1.00;0.93;;;27.10;65.50;;;;;;5034923;28;20450;-75
2022/08/18 09:46:55;;;;;;;0.80;0.80;;;27.10;65.70;;;;;;5034714;28;20523;-75
2022/08/18 09:49:47;;;;;;;0.70;0.70;;;27.20;65.10;;;;;;5034763;28;20439;-75
2022/08/18 09:52:48;;;;;;;0.70;0.70;;;26.60;66.50;;;;;;5034602;28;20830;-74
2022/08/18 09:55:38;;;;;;;0.80;0.80;;;26.30;67.70;;;;;;5023786;28;20551;-74
2022/08/18 09:58:18;;;;;;;0.90;0.80;;;26.60;66.60;;;;;;5034334;28;20439;-75
2022/08/18 10:00:45;;;;;;;0.80;0.80;;;26.50;66.80;;;;;;5034510;28;20900;-73
2022/08/18 10:03:24;;;;;;;0.80;0.80;;;26.10;67.60;;;;;;5034464;28;20462;-74
2022/08/18 10:06:06;;;;;;;0.77;0.77;;;26.10;68.20;;;;;;5034298;28;20444;-74
2022/08/18 10:08:47;;;;;;;0.80;0.80;;;26.00;67.30;;;;;;5034306;28;20464;-73
2022/08/18 10:11:26;;;;;;;0.80;0.80;;;26.00;68.50;;;;;;5034604;28;20463;-73
2022/08/18 10:14:20;;;;;;;0.80;0.80;;;26.20;68.30;;;;;;5034314;28;20439;-72
2022/08/18 10:16:52;;;;;;;0.70;0.70;;;26.50;67.80;;;;;;5034221;28;20470;-73
2022/08/18 10:19:25;;;;;;;0.80;0.80;;;26.60;67.50;;;;;;5034186;28;20493;-73
2022/08/18 10:22:05;;;;;;;0.87;0.83;;;26.80;66.80;;;;;;5034038;28;20459;-73
2022/08/18 10:24:37;;;;;;;0.80;0.80;;;26.90;65.60;;;;;;5034052;28;20431;-73
2022/08/18 10:27:07;;;;;;;0.80;0.80;;;27.00;65.70;;;;;;5033758;28;20918;-74
2022/08/18 10:30:01;;;;;;;0.70;0.70;;;27.10;66.60;;;;;;5034005;28;20447;-73
2022/08/18 10:32:44;;;;;;;0.80;0.80;;;27.40;65.30;;;;;;5034036;28;20880;-74
2022/08/18 10:35:51;;;;;;;1.17;1.07;;;27.40;65.00;;;;;;5033946;28;20514;-74
2022/08/18 10:38:43;;;;;;;0.90;0.90;;;27.40;64.70;;;;;;5033881;28;20423;-75
2022/08/18 10:41:20;;;;;;;0.80;0.80;;;27.50;64.90;;;;;;5030666;28;20479;-75
2022/08/18 10:43:48;;;;;;;0.80;0.80;;;27.60;65.00;;;;;;5033832;28;20862;-74
2022/08/18 10:46:20;;;;;;;0.77;0.77;;;27.70;64.60;;;;;;5034461;28;20464;-74
2022/08/18 10:49:00;;;;;;;0.80;0.70;;;27.70;65.00;;;;;;5033681;28;20542;-73
2022/08/18 10:51:36;;;;;;;0.80;0.80;;;27.70;64.10;;;;;;5033621;28;20513;-73
2022/08/18 10:54:12;;;;;;;1.10;1.10;;;27.70;64.40;;;;;;5033614;28;20510;-74
2022/08/18 10:56:46;;;;;;;0.80;0.80;;;27.60;64.80;;;;;;5034294;28;20444;-73
2022/08/18 10:59:22;;;;;;;0.70;0.70;;;27.60;64.30;;;;;;5033267;28;20882;-75
2022/08/18 11:02:04;;;;;;;0.80;0.80;;;27.60;64.30;;;;;;5033490;28;20487;-76
2022/08/18 11:04:36;;;;;;;0.80;0.80;;;27.50;64.70;;;;;;5034148;28;20444;-76
2022/08/18 11:07:08;;;;;;;0.90;0.70;;;27.50;64.40;;;;;;5034337;28;20863;-74
2022/08/18 11:09:36;;;;;;;0.80;0.80;;;27.40;64.40;;;;;;5033701;28;20424;-75
2022/08/18 11:12:04;;;;;;;0.97;0.97;;;27.30;65.40;;;;;;5033808;28;20529;-74
2022/08/18 11:15:00;;;;;;;0.90;0.90;;;27.20;65.30;;;;;;5033627;28;20509;-76
2022/08/18 11:17:39;;;;;;;0.90;0.90;;;27.30;65.20;;;;;;5032876;28;20427;-76
2022/08/18 11:20:09;;;;;;;0.80;0.80;;;27.40;64.70;;;;;;5033762;28;20511;-73
2022/08/18 11:22:37;;;;;;;0.90;0.90;;;27.40;64.70;;;;;;5034570;28;20491;-78
2022/08/18 11:25:20;;;;;;;0.80;0.80;;;27.30;64.90;;;;;;5034513;28;20531;-76
2022/08/18 11:27:48;;;;;;;0.90;0.80;;;27.40;63.90;;;;;;5033236;28;20463;-72
2022/08/18 11:30:15;;;;;;;0.80;0.80;;;27.20;63.90;;;;;;5033193;28;20443;-75
2022/08/18 11:32:43;;;;;;;0.80;0.80;;;27.20;64.10;;;;;;5033085;28;20475;-75
2022/08/18 11:35:15;;;;;;;0.93;0.93;;;27.20;63.80;;;;;;5033100;28;20921;-75
2022/08/18 11:37:45;;;;;;;0.83;0.83;;;27.20;64.00;;;;;;5033178;28;20470;-75
2022/08/18 11:40:25;;;;;;;1.40;0.90;;;27.30;64.30;;;;;;5032853;28;20934;-74
2022/08/18 11:42:55;;;;;;;1.13;1.03;;;27.10;64.80;;;;;;5033052;28;20427;-73
2022/08/18 11:45:25;;;;;;;0.80;0.80;;;27.10;65.00;;;;;;5032769;28;20969;-74
2022/08/18 11:48:18;;;;;;;0.73;0.73;;;27.10;64.60;;;;;;5032961;28;20487;-74
2022/08/18 11:50:48;;;;;;;0.83;0.83;;;27.20;64.20;;;;;;5033015;28;20471;-75
2022/08/18 11:53:22;;;;;;;0.80;0.80;;;27.40;64.00;;;;;;5032988;28;20444;-75
2022/08/18 11:56:04;;;;;;;0.87;0.87;;;27.60;63.70;;;;;;5032797;28;20416;-75
2022/08/18 11:58:44;;;;;;;1.17;1.07;;;27.80;62.00;;;;;;5032980;28;20845;-75
2022/08/18 12:01:12;;;;;;;1.27;0.90;;;27.90;62.00;;;;;;5032897;28;21005;-73
2022/08/18 12:03:43;;;;;;;1.03;1.00;;;28.00;62.30;;;;;;5032941;28;20435;-72
2022/08/18 12:06:22;;;;;;;1.07;0.97;;;28.10;62.00;;;;;;5032916;28;20498;-74
2022/08/18 12:08:56;;;;;;;0.93;0.90;;;28.10;62.30;;;;;;5032828;28;20474;-74
2022/08/18 12:11:25;;;;;;;0.90;0.90;;;28.00;62.00;;;;;;5033270;28;20833;-72
2022/08/18 12:14:01;;;;;;;1.10;0.90;;;27.90;62.10;;;;;;5032788;28;20493;-75
2022/08/18 12:16:35;;;;;;;1.47;1.30;;;27.70;62.60;;;;;;5032504;28;20823;-74
2022/08/18 12:19:04;;;;;;;0.80;0.80;;;27.70;63.00;;;;;;5032809;28;20428;-74
2022/08/18 12:21:31;;;;;;;0.83;0.83;;;27.90;62.90;;;;;;5032687;28;20809;-74
2022/08/18 12:23:59;;;;;;;1.00;1.00;;;27.90;62.30;;;;;;5032444;28;21005;-75
2022/08/18 12:26:25;;;;;;;0.93;0.90;;;28.00;61.90;;;;;;5032743;28;20452;-74
2022/08/18 12:28:52;;;;;;;1.43;1.30;;;27.90;62.70;;;;;;5032732;28;20479;-72
2022/08/18 12:31:18;;;;;;;0.90;0.90;;;28.10;61.80;;;;;;5035445;28;20471;-75
2022/08/18 12:33:46;;;;;;;0.80;0.80;;;28.00;61.60;;;;;;5036145;28;20455;-74
2022/08/18 12:36:14;;;;;;;0.90;0.90;;;28.00;61.40;;;;;;5036109;28;20458;-74
2022/08/18 12:38:43;;;;;;;1.93;1.23;;;28.30;61.70;;;;;;5036026;28;20440;-75
2022/08/18 12:41:10;;;;;;;0.90;0.90;;;28.60;61.70;;;;;;5035965;28;20547;-74
2022/08/18 12:43:38;;;;;;;0.80;0.80;;;28.80;59.80;;;;;;5036035;28;20541;-75
2022/08/18 12:46:05;;;;;;;0.90;0.90;;;28.70;59.00;;;;;;5035940;28;20534;-73
2022/08/18 12:48:32;;;;;;;0.80;0.80;;;28.70;58.20;;;;;;5035492;28;20474;-74
2022/08/18 12:50:58;;;;;;;1.20;0.80;;;28.80;58.60;;;;;;5035493;28;20522;-73
2022/08/18 12:53:28;;;;;;;1.20;0.80;;;28.90;58.50;;;;;;5036916;28;20451;-74
2022/08/18 12:55:55;;;;;;;0.80;0.80;;;29.00;58.20;;;;;;5036601;28;20443;-73
2022/08/18 12:58:22;;;;;;;0.80;0.80;;;29.10;57.20;;;;;;5035435;28;20452;-74
2022/08/18 13:00:49;;;;;;;1.07;0.97;;;29.10;56.90;;;;;;5035405;28;20467;-72
2022/08/18 13:03:16;;;;;;;0.80;0.80;;;29.00;58.20;;;;;;5035672;28;20428;-73
2022/08/18 13:05:43;;;;;;;0.90;0.90;;;29.10;56.90;;;;;;5035668;28;20452;-74
2022/08/18 13:08:16;;;;;;;2.03;1.00;;;29.30;57.30;;;;;;5035455;28;20474;-73
2022/08/18 13:10:47;;;;;;;0.70;0.70;;;29.30;56.80;;;;;;5036060;28;20475;-74
2022/08/18 13:13:15;;;;;;;0.80;0.80;;;29.50;57.00;;;;;;5035482;28;20447;-73
2022/08/18 13:15:42;;;;;;;0.87;0.87;;;29.60;55.70;;;;;;5035510;28;20534;-74
2022/08/18 13:18:10;;;;;;;1.03;0.93;;;29.40;55.90;;;;;;5035055;28;20932;-72
2022/08/18 13:20:36;;;;;;;0.90;0.80;;;29.20;56.00;;;;;;5035263;28;20452;-72
2022/08/18 13:23:03;;;;;;;1.93;0.97;;;29.20;56.70;;;;;;5035213;28;20542;-71
2022/08/18 13:25:30;;;;;;;0.83;0.83;;;29.10;57.00;;;;;;5035226;28;20543;-72
2022/08/18 13:27:58;;;;;;;0.77;0.77;;;29.30;56.90;;;;;;5035073;28;20489;-73
2022/08/18 13:30:25;;;;;;;0.90;0.90;;;29.40;57.00;;;;;;5034741;28;20961;-73
2022/08/18 13:32:51;;;;;;;0.90;0.90;;;29.70;56.50;;;;;;5035156;28;20506;-73
2022/08/18 13:35:18;;;;;;;1.03;1.03;;;29.80;55.30;;;;;;5035000;28;20505;-72
2022/08/18 13:37:45;;;;;;;0.70;0.70;;;30.00;55.20;;;;;;5034675;28;20501;-74
2022/08/18 13:40:13;;;;;;;0.80;0.70;;;30.20;54.50;;;;;;5034706;28;20439;-74
2022/08/18 13:42:48;;;;;;;0.90;0.80;;;30.30;53.60;;;;;;5034313;28;20897;-75
2022/08/18 13:45:20;;;;;;;1.43;0.90;;;30.50;53.30;;;;;;5034863;28;20443;-74
2022/08/18 13:47:47;;;;;;;1.00;1.00;;;30.30;53.30;;;;;;5034821;28;20420;-74
2022/08/18 13:50:15;;;;;;;0.80;0.80;;;29.90;54.20;;;;;;5034394;28;21078;-74
2022/08/18 13:52:43;;;;;;;0.80;0.80;;;29.60;55.10;;;;;;5034683;28;20467;-73
2022/08/18 13:55:12;;;;;;;0.87;0.87;;;29.40;55.60;;;;;;5034764;28;20513;-73
2022/08/18 13:57:40;;;;;;;0.80;0.80;;;29.30;55.20;;;;;;5034585;28;20443;-73
2022/08/18 14:00:11;;;;;;;0.80;0.80;;;29.40;56.10;;;;;;5034580;28;20542;-74
2022/08/18 14:02:39;;;;;;;0.90;0.80;;;29.50;55.90;;;;;;5034153;28;20486;-74
2022/08/18 14:05:08;;;;;;;1.43;0.90;;;29.70;55.90;;;;;;5034451;28;20444;-74
2022/08/18 14:07:35;;;;;;;1.00;0.80;;;29.80;55.10;;;;;;5034461;28;20444;-72
2022/08/18 14:10:02;;;;;;;0.80;0.80;;;29.90;55.30;;;;;;5034332;28;20481;-72
2022/08/18 14:12:33;;;;;;;1.13;1.03;;;29.90;55.50;;;;;;5034281;28;20479;-73
2022/08/18 14:15:00;;;;;;;1.00;0.80;;;29.80;54.60;;;;;;5034474;28;20424;-73
2022/08/18 14:17:27;;;;;;;0.80;0.80;;;29.90;55.00;;;;;;5034370;28;20869;-72
2022/08/18 14:28:08;;;;;;;0.97;0.87;;;29.60;55.90;;;;;;5033819;28;20457;-72
2022/08/18 14:30:37;;;;;;;0.70;0.70;;;29.40;55.30;;;;;;5033979;28;20530;-74
2022/08/18 14:33:06;;;;;;;1.00;0.90;;;29.30;55.10;;;;;;5033835;28;20534;-73
2022/08/18 14:35:34;;;;;;;0.80;0.80;;;29.00;55.30;;;;;;5033874;28;20534;-73
2022/08/18 14:38:02;;;;;;;1.00;0.80;;;28.70;56.30;;;;;;5033549;28;20846;-74
2022/08/18 14:40:31;;;;;;;0.87;0.80;;;28.60;56.70;;;;;;5033836;28;20448;-74
2022/08/18 14:42:57;;;;;;;1.00;0.83;;;28.50;57.40;;;;;;5033763;28;20444;-73
2022/08/18 14:45:27;;;;;;;0.80;0.80;;;28.40;57.50;;;;;;5033769;28;20443;-74
2022/08/18 14:47:55;;;;;;;0.80;0.80;;;28.40;57.60;;;;;;5033845;28;20502;-74
2022/08/18 14:50:22;;;;;;;0.80;0.80;;;28.50;57.20;;;;;;5033599;28;20515;-73
2022/08/18 14:52:50;;;;;;;1.10;1.00;;;28.60;57.20;;;;;;5032935;28;20509;-74
2022/08/18 14:55:19;;;;;;;0.70;0.70;;;28.70;57.10;;;;;;5034455;28;20450;-73
2022/08/18 14:57:45;;;;;;;0.80;0.80;;;28.50;57.30;;;;;;5033236;28;20850;-74
2022/08/18 15:00:15;;;;;;;0.90;0.90;;;28.50;57.30;;;;;;5033630;28;20447;-74
2022/08/18 15:02:43;;;;;;;0.80;0.80;;;28.60;57.30;;;;;;5033104;28;20483;-74
2022/08/18 15:05:10;;;;;;;0.80;0.80;;;28.70;57.00;;;;;;5033495;28;20447;-73
2022/08/18 15:07:37;;;;;;;0.80;0.80;;;28.70;56.90;;;;;;5033437;28;20456;-73
2022/08/18 15:10:06;;;;;;;0.80;0.80;;;28.70;56.50;;;;;;5033341;28;20548;-72
2022/08/18 15:12:33;;;;;;;0.80;0.80;;;28.50;56.30;;;;;;5033353;28;20525;-73
2022/08/18 15:14:59;;;;;;;1.00;0.80;;;28.50;56.80;;;;;;5033423;28;20443;-74
2022/08/18 15:17:27;;;;;;;0.90;0.90;;;28.40;56.80;;;;;;5033810;28;20464;-74
2022/08/18 15:19:54;;;;;;;0.90;0.90;;;28.30;57.20;;;;;;5033377;28;20482;-75
2022/08/18 15:25:41;;;;;;;1.13;1.00;;;28.20;58.70;;;;;;5033401;28;20482;-74
2022/08/18 15:28:08;;;;;;;0.90;0.80;;;28.30;58.10;;;;;;5032998;28;20950;-74
2022/08/18 15:30:36;;;;;;;0.80;0.80;;;28.30;57.80;;;;;;5032767;28;20490;-75
2022/08/18 15:33:04;;;;;;;0.70;0.70;;;28.30;57.90;;;;;;5033237;28;20863;-75
2022/08/18 15:35:31;;;;;;;0.80;0.80;;;28.30;58.20;;;;;;5033201;28;20473;-74
2022/08/18 15:37:59;;;;;;;0.90;0.90;;;28.30;57.60;;;;;;5032824;28;20943;-74
2022/08/18 15:40:29;;;;;;;0.80;0.80;;;28.30;57.90;;;;;;5033359;28;20534;-74
2022/08/18 15:42:57;;;;;;;0.80;0.80;;;28.20;57.30;;;;;;5033126;28;20499;-75
2022/08/18 15:45:29;;;;;;;0.90;0.90;;;28.10;57.20;;;;;;5032760;28;20864;-73
2022/08/18 15:47:56;;;;;;;0.80;0.80;;;28.10;58.20;;;;;;5033207;28;20849;-74
2022/08/18 15:50:23;;;;;;;0.90;0.90;;;28.00;58.20;;;;;;5033095;28;20574;-73
2022/08/18 15:52:51;;;;;;;0.70;0.70;;;28.10;58.20;;;;;;5033028;28;20497;-73
2022/08/18 15:55:19;;;;;;;0.80;0.77;;;28.10;58.50;;;;;;5033021;28;20447;-74
2022/08/18 15:57:48;;;;;;;1.33;0.90;;;28.10;58.20;;;;;;5032705;28;21007;-74
2022/08/18 16:00:17;;;;;;;0.70;0.70;;;28.20;58.00;;;;;;5032947;28;20497;-73
2022/08/18 16:02:50;;;;;;;0.77;0.77;;;28.20;58.30;;;;;;5032584;28;20896;-74
2022/08/18 16:05:17;;;;;;;0.97;0.90;;;28.30;58.00;;;;;;5035729;28;20994;-73
2022/08/18 16:07:46;;;;;;;0.83;0.83;;;28.30;58.00;;;;;;5036734;28;20455;-72
2022/08/18 16:10:13;;;;;;;1.00;0.80;;;28.30;58.10;;;;;;5036591;28;20482;-73
2022/08/18 16:12:40;;;;;;;0.77;0.77;;;28.10;58.60;;;;;;5036611;28;20525;-73
2022/08/18 16:15:09;;;;;;;0.80;0.80;;;28.00;58.80;;;;;;5036424;28;20470;-72
2022/08/18 16:17:36;;;;;;;0.80;0.80;;;28.00;59.10;;;;;;5036573;28;20498;-74
2022/08/18 16:20:04;;;;;;;0.90;0.90;;;28.00;59.40;;;;;;5036472;28;20498;-74
2022/08/18 16:22:31;;;;;;;0.90;0.87;;;28.00;59.00;;;;;;5036405;28;20474;-73
2022/08/18 16:24:58;;;;;;;0.73;0.70;;;28.10;58.90;;;;;;5036098;28;20935;-72
2022/08/18 16:27:25;;;;;;;0.70;0.70;;;28.00;58.90;;;;;;5035961;28;20459;-73
2022/08/18 16:29:52;;;;;;;1.00;0.90;;;28.00;58.90;;;;;;5036414;28;20553;-72
2022/08/18 16:32:20;;;;;;;0.83;0.83;;;28.00;58.70;;;;;;5036248;28;20475;-72
2022/08/18 16:34:47;;;;;;;0.87;0.87;;;27.90;58.70;;;;;;5036362;28;20501;-73